sensor_id;sensor_type;location;lat;lon;timestamp;temperature;humidity
11122;DHT22;5615;49.304;10.576;2023-12-22T00:00:59;2.80;99.90
11122;DHT22;5615;49.304;10.576;2023-12-22T00:03:25;2.70;99.90
11122;DHT22;5615;49.304;10.576;2023-12-22T00:05:53;2.70;99.90
11122;DHT22;5615;49.304;10.576;2023-12-22T00:08:20;2.60;99.90
11122;DHT22;5615;49.304;10.576;2023-12-22T00:10:48;2.60;99.90
11122;DHT22;5615;49.304;10.576;2023-12-22T00:13:15;2.60;99.90
11122;DHT22;5615;49.304;10.576;2023-12-22T00:15:42;2.60;99.90
11122;DHT22;5615;49.304;10.576;2023-12-22T00:18:08;2.50;99.90
11122;DHT22;5615;49.304;10.576;2023-12-22T00:20:35;2.50;99.90
11122;DHT22;5615;49.304;10.576;2023-12-22T00:23:04;2.50;99.90
11122;DHT22;5615;49.304;10.576;2023-12-22T00:25:30;2.50;99.90
11122;DHT22;5615;49.304;10.576;2023-12-22T00:27:57;2.50;99.90
11122;DHT22;5615;49.304;10.576;2023-12-22T00:30:23;2.60;99.90
11122;DHT22;5615;49.304;10.576;2023-12-22T00:32:50;2.60;99.90
11122;DHT22;5615;49.304;10.576;2023-12-22T00:35:17;2.60;99.90
11122;DHT22;5615;49.304;10.576;2023-12-22T00:37:43;2.60;99.90
11122;DHT22;5615;49.304;10.576;2023-12-22T00:40:12;2.60;99.90
11122;DHT22;5615;49.304;10.576;2023-12-22T00:42:39;2.60;99.90
11122;DHT22;5615;49.304;10.576;2023-12-22T00:45:06;2.60;99.90
11122;DHT22;5615;49.304;10.576;2023-12-22T00:47:32;2.60;99.90
11122;DHT22;5615;49.304;10.576;2023-12-22T00:50:00;2.50;99.90
11122;DHT22;5615;49.304;10.576;2023-12-22T00:52:27;2.60;99.90
11122;DHT22;5615;49.304;10.576;2023-12-22T00:54:53;2.60;99.90
11122;DHT22;5615;49.304;10.576;2023-12-22T00:57:21;2.50;99.90
11122;DHT22;5615;49.304;10.576;2023-12-22T00:59:48;2.60;99.90
11122;DHT22;5615;49.304;10.576;2023-12-22T01:02:15;2.60;99.90
11122;DHT22;5615;49.304;10.576;2023-12-22T01:04:41;2.60;99.90
11122;DHT22;5615;49.304;10.576;2023-12-22T01:07:08;2.50;99.90
11122;DHT22;5615;49.304;10.576;2023-12-22T01:09:35;2.60;99.90
11122;DHT22;5615;49.304;10.576;2023-12-22T01:12:03;2.60;99.90
11122;DHT22;5615;49.304;10.576;2023-12-22T01:14:32;2.60;99.90
11122;DHT22;5615;49.304;10.576;2023-12-22T01:16:58;2.60;99.90
11122;DHT22;5615;49.304;10.576;2023-12-22T01:19:26;2.60;99.90
11122;DHT22;5615;49.304;10.576;2023-12-22T01:21:52;2.60;99.90
11122;DHT22;5615;49.304;10.576;2023-12-22T01:24:19;2.70;99.90
11122;DHT22;5615;49.304;10.576;2023-12-22T01:26:45;2.60;99.90
11122;DHT22;5615;49.304;10.576;2023-12-22T01:29:12;2.60;99.90
11122;DHT22;5615;49.304;10.576;2023-12-22T01:31:40;2.60;99.90
11122;DHT22;5615;49.304;10.576;2023-12-22T01:34:07;2.60;99.90
11122;DHT22;5615;49.304;10.576;2023-12-22T01:36:34;2.50;99.90
11122;DHT22;5615;49.304;10.576;2023-12-22T01:39:00;2.50;99.90
11122;DHT22;5615;49.304;10.576;2023-12-22T01:41:27;2.50;99.90
11122;DHT22;5615;49.304;10.576;2023-12-22T01:43:54;2.50;99.90
11122;DHT22;5615;49.304;10.576;2023-12-22T01:46:20;2.60;99.90
11122;DHT22;5615;49.304;10.576;2023-12-22T01:48:48;2.50;99.90
11122;DHT22;5615;49.304;10.576;2023-12-22T01:51:15;2.50;99.90
11122;DHT22;5615;49.304;10.576;2023-12-22T01:53:42;2.50;99.90
11122;DHT22;5615;49.304;10.576;2023-12-22T01:56:11;2.60;99.90
11122;DHT22;5615;49.304;10.576;2023-12-22T01:58:37;2.60;99.90
11122;DHT22;5615;49.304;10.576;2023-12-22T02:01:04;2.60;99.90
11122;DHT22;5615;49.304;10.576;2023-12-22T02:03:32;2.60;99.90
11122;DHT22;5615;49.304;10.576;2023-12-22T02:06:00;2.60;99.90
11122;DHT22;5615;49.304;10.576;2023-12-22T02:08:28;2.60;99.90
11122;DHT22;5615;49.304;10.576;2023-12-22T02:10:58;2.70;99.90
11122;DHT22;5615;49.304;10.576;2023-12-22T02:13:25;2.80;99.90
11122;DHT22;5615;49.304;10.576;2023-12-22T02:15:56;2.80;99.90
11122;DHT22;5615;49.304;10.576;2023-12-22T02:18:30;2.80;99.90
11122;DHT22;5615;49.304;10.576;2023-12-22T02:21:00;2.80;99.90
11122;DHT22;5615;49.304;10.576;2023-12-22T02:23:28;2.80;99.90
11122;DHT22;5615;49.304;10.576;2023-12-22T02:26:01;2.80;99.90
11122;DHT22;5615;49.304;10.576;2023-12-22T02:28:31;2.70;99.90
11122;DHT22;5615;49.304;10.576;2023-12-22T02:31:03;2.70;99.90
11122;DHT22;5615;49.304;10.576;2023-12-22T02:33:31;2.60;99.90
11122;DHT22;5615;49.304;10.576;2023-12-22T02:36:03;2.50;99.90
11122;DHT22;5615;49.304;10.576;2023-12-22T02:38:33;2.40;99.90
11122;DHT22;5615;49.304;10.576;2023-12-22T02:41:01;2.50;99.90
11122;DHT22;5615;49.304;10.576;2023-12-22T02:43:28;2.50;99.90
11122;DHT22;5615;49.304;10.576;2023-12-22T02:45:54;2.50;99.90
11122;DHT22;5615;49.304;10.576;2023-12-22T02:48:21;2.50;99.90
11122;DHT22;5615;49.304;10.576;2023-12-22T02:50:48;2.50;99.90
11122;DHT22;5615;49.304;10.576;2023-12-22T02:53:14;2.50;99.90
11122;DHT22;5615;49.304;10.576;2023-12-22T02:55:42;2.60;99.90
11122;DHT22;5615;49.304;10.576;2023-12-22T02:58:09;2.60;99.90
11122;DHT22;5615;49.304;10.576;2023-12-22T03:00:35;2.60;99.90
11122;DHT22;5615;49.304;10.576;2023-12-22T03:03:02;2.70;99.90
11122;DHT22;5615;49.304;10.576;2023-12-22T03:05:29;2.60;99.90
11122;DHT22;5615;49.304;10.576;2023-12-22T03:07:56;2.60;99.90
11122;DHT22;5615;49.304;10.576;2023-12-22T03:10:23;2.60;99.90
11122;DHT22;5615;49.304;10.576;2023-12-22T03:12:51;2.70;99.90
11122;DHT22;5615;49.304;10.576;2023-12-22T03:15:17;2.70;99.90
11122;DHT22;5615;49.304;10.576;2023-12-22T03:17:44;2.70;99.90
11122;DHT22;5615;49.304;10.576;2023-12-22T03:20:11;2.70;99.90
11122;DHT22;5615;49.304;10.576;2023-12-22T03:22:37;2.70;99.90
11122;DHT22;5615;49.304;10.576;2023-12-22T03:25:03;2.60;99.90
11122;DHT22;5615;49.304;10.576;2023-12-22T03:27:30;2.60;99.90
11122;DHT22;5615;49.304;10.576;2023-12-22T03:29:58;2.50;99.90
11122;DHT22;5615;49.304;10.576;2023-12-22T03:32:27;2.40;99.90
11122;DHT22;5615;49.304;10.576;2023-12-22T03:34:53;2.30;99.90
11122;DHT22;5615;49.304;10.576;2023-12-22T03:37:20;2.20;99.90
11122;DHT22;5615;49.304;10.576;2023-12-22T03:39:47;2.10;99.90
11122;DHT22;5615;49.304;10.576;2023-12-22T03:42:13;2.10;99.90
11122;DHT22;5615;49.304;10.576;2023-12-22T03:44:40;2.00;99.90
11122;DHT22;5615;49.304;10.576;2023-12-22T03:47:08;2.00;99.90
11122;DHT22;5615;49.304;10.576;2023-12-22T03:49:34;2.00;99.90
11122;DHT22;5615;49.304;10.576;2023-12-22T03:52:01;2.00;99.90
11122;DHT22;5615;49.304;10.576;2023-12-22T03:54:28;2.00;99.90
11122;DHT22;5615;49.304;10.576;2023-12-22T03:56:54;2.10;99.90
11122;DHT22;5615;49.304;10.576;2023-12-22T03:59:21;2.10;99.90
11122;DHT22;5615;49.304;10.576;2023-12-22T04:01:50;2.20;99.90
11122;DHT22;5615;49.304;10.576;2023-12-22T04:04:19;2.30;99.90
11122;DHT22;5615;49.304;10.576;2023-12-22T04:06:47;2.30;99.90
11122;DHT22;5615;49.304;10.576;2023-12-22T04:09:14;2.40;99.90
11122;DHT22;5615;49.304;10.576;2023-12-22T04:11:40;2.40;99.90
11122;DHT22;5615;49.304;10.576;2023-12-22T04:14:07;2.40;99.90
11122;DHT22;5615;49.304;10.576;2023-12-22T04:16:36;2.40;99.90
11122;DHT22;5615;49.304;10.576;2023-12-22T04:19:03;2.50;99.90
11122;DHT22;5615;49.304;10.576;2023-12-22T04:21:31;2.50;99.90
11122;DHT22;5615;49.304;10.576;2023-12-22T04:23:57;2.40;99.90
11122;DHT22;5615;49.304;10.576;2023-12-22T04:26:24;2.40;99.90
11122;DHT22;5615;49.304;10.576;2023-12-22T04:28:51;2.40;99.90
11122;DHT22;5615;49.304;10.576;2023-12-22T04:31:17;2.40;99.90
11122;DHT22;5615;49.304;10.576;2023-12-22T04:33:44;2.40;99.90
11122;DHT22;5615;49.304;10.576;2023-12-22T04:36:10;2.40;99.90
11122;DHT22;5615;49.304;10.576;2023-12-22T04:38:38;2.50;99.90
11122;DHT22;5615;49.304;10.576;2023-12-22T04:41:06;2.40;99.90
11122;DHT22;5615;49.304;10.576;2023-12-22T04:43:33;2.40;99.90
11122;DHT22;5615;49.304;10.576;2023-12-22T04:45:59;2.40;99.90
11122;DHT22;5615;49.304;10.576;2023-12-22T04:48:26;2.40;99.90
11122;DHT22;5615;49.304;10.576;2023-12-22T04:50:53;2.40;99.90
11122;DHT22;5615;49.304;10.576;2023-12-22T04:53:18;2.30;99.90
11122;DHT22;5615;49.304;10.576;2023-12-22T04:55:46;2.30;99.90
11122;DHT22;5615;49.304;10.576;2023-12-22T04:58:13;2.20;99.90
11122;DHT22;5615;49.304;10.576;2023-12-22T05:00:40;2.20;99.90
11122;DHT22;5615;49.304;10.576;2023-12-22T05:03:06;2.10;99.90
11122;DHT22;5615;49.304;10.576;2023-12-22T05:05:33;2.10;99.90
11122;DHT22;5615;49.304;10.576;2023-12-22T05:08:00;2.00;99.90
11122;DHT22;5615;49.304;10.576;2023-12-22T05:10:26;2.00;99.90
11122;DHT22;5615;49.304;10.576;2023-12-22T05:12:54;2.00;99.90
11122;DHT22;5615;49.304;10.576;2023-12-22T05:15:21;1.90;99.90
11122;DHT22;5615;49.304;10.576;2023-12-22T05:17:47;1.70;99.90
11122;DHT22;5615;49.304;10.576;2023-12-22T05:20:14;1.60;99.90
11122;DHT22;5615;49.304;10.576;2023-12-22T05:22:41;1.60;99.90
11122;DHT22;5615;49.304;10.576;2023-12-22T05:25:08;1.60;99.90
11122;DHT22;5615;49.304;10.576;2023-12-22T05:27:35;1.60;99.90
11122;DHT22;5615;49.304;10.576;2023-12-22T05:30:04;1.70;99.90
11122;DHT22;5615;49.304;10.576;2023-12-22T05:32:31;1.80;99.90
11122;DHT22;5615;49.304;10.576;2023-12-22T05:34:58;1.90;99.90
11122;DHT22;5615;49.304;10.576;2023-12-22T05:37:25;1.90;99.90
11122;DHT22;5615;49.304;10.576;2023-12-22T05:39:51;1.90;99.90
11122;DHT22;5615;49.304;10.576;2023-12-22T05:42:18;1.90;99.90
11122;DHT22;5615;49.304;10.576;2023-12-22T05:44:44;1.90;99.90
11122;DHT22;5615;49.304;10.576;2023-12-22T05:47:16;2.00;99.90
11122;DHT22;5615;49.304;10.576;2023-12-22T05:49:43;2.20;99.90
11122;DHT22;5615;49.304;10.576;2023-12-22T05:52:11;2.30;99.90
11122;DHT22;5615;49.304;10.576;2023-12-22T05:54:38;2.40;99.90
11122;DHT22;5615;49.304;10.576;2023-12-22T05:57:05;2.50;99.90
11122;DHT22;5615;49.304;10.576;2023-12-22T05:59:32;2.60;99.90
11122;DHT22;5615;49.304;10.576;2023-12-22T06:02:00;2.80;99.90
11122;DHT22;5615;49.304;10.576;2023-12-22T06:04:28;2.90;99.90
11122;DHT22;5615;49.304;10.576;2023-12-22T06:06:54;3.10;99.90
11122;DHT22;5615;49.304;10.576;2023-12-22T06:09:21;3.20;99.90
11122;DHT22;5615;49.304;10.576;2023-12-22T06:11:48;3.20;99.90
11122;DHT22;5615;49.304;10.576;2023-12-22T06:14:14;3.20;99.90
11122;DHT22;5615;49.304;10.576;2023-12-22T06:16:41;3.30;99.90
11122;DHT22;5615;49.304;10.576;2023-12-22T06:19:08;3.40;99.90
11122;DHT22;5615;49.304;10.576;2023-12-22T06:21:38;3.40;99.90
11122;DHT22;5615;49.304;10.576;2023-12-22T06:24:05;3.50;99.90
11122;DHT22;5615;49.304;10.576;2023-12-22T06:26:33;3.50;99.90
11122;DHT22;5615;49.304;10.576;2023-12-22T06:28:59;3.50;99.90
11122;DHT22;5615;49.304;10.576;2023-12-22T06:31:26;3.50;99.90
11122;DHT22;5615;49.304;10.576;2023-12-22T06:33:53;3.40;99.90
11122;DHT22;5615;49.304;10.576;2023-12-22T06:36:20;3.40;99.90
11122;DHT22;5615;49.304;10.576;2023-12-22T06:38:48;3.40;99.90
11122;DHT22;5615;49.304;10.576;2023-12-22T06:41:19;3.40;99.90
11122;DHT22;5615;49.304;10.576;2023-12-22T06:43:46;3.40;99.90
11122;DHT22;5615;49.304;10.576;2023-12-22T06:46:14;3.40;99.90
11122;DHT22;5615;49.304;10.576;2023-12-22T06:48:42;3.50;99.90
11122;DHT22;5615;49.304;10.576;2023-12-22T06:51:16;3.50;99.90
11122;DHT22;5615;49.304;10.576;2023-12-22T06:53:43;3.40;99.90
11122;DHT22;5615;49.304;10.576;2023-12-22T06:56:16;3.20;99.90
11122;DHT22;5615;49.304;10.576;2023-12-22T06:58:43;3.20;99.90
11122;DHT22;5615;49.304;10.576;2023-12-22T07:01:10;3.20;99.90
11122;DHT22;5615;49.304;10.576;2023-12-22T07:03:37;3.20;99.90
11122;DHT22;5615;49.304;10.576;2023-12-22T07:06:04;3.30;99.90
11122;DHT22;5615;49.304;10.576;2023-12-22T07:08:31;3.40;99.90
11122;DHT22;5615;49.304;10.576;2023-12-22T07:10:58;3.40;99.90
11122;DHT22;5615;49.304;10.576;2023-12-22T07:13:26;3.50;99.90
11122;DHT22;5615;49.304;10.576;2023-12-22T07:15:53;3.50;99.90
11122;DHT22;5615;49.304;10.576;2023-12-22T07:18:19;3.50;99.90
11122;DHT22;5615;49.304;10.576;2023-12-22T07:20:46;3.50;99.90
11122;DHT22;5615;49.304;10.576;2023-12-22T07:23:14;3.50;99.90
11122;DHT22;5615;49.304;10.576;2023-12-22T07:25:40;3.50;99.90
11122;DHT22;5615;49.304;10.576;2023-12-22T07:28:07;3.50;99.90
11122;DHT22;5615;49.304;10.576;2023-12-22T07:30:35;3.60;99.90
11122;DHT22;5615;49.304;10.576;2023-12-22T07:33:02;3.50;99.90
11122;DHT22;5615;49.304;10.576;2023-12-22T07:35:29;3.50;99.90
11122;DHT22;5615;49.304;10.576;2023-12-22T07:37:56;3.50;99.90
11122;DHT22;5615;49.304;10.576;2023-12-22T07:40:22;3.60;99.90
11122;DHT22;5615;49.304;10.576;2023-12-22T07:42:49;3.60;99.90
11122;DHT22;5615;49.304;10.576;2023-12-22T07:45:16;3.60;99.90
11122;DHT22;5615;49.304;10.576;2023-12-22T07:47:44;3.60;99.90
11122;DHT22;5615;49.304;10.576;2023-12-22T07:50:11;3.60;99.90
11122;DHT22;5615;49.304;10.576;2023-12-22T07:52:38;3.70;99.90
11122;DHT22;5615;49.304;10.576;2023-12-22T07:55:06;3.80;99.90
11122;DHT22;5615;49.304;10.576;2023-12-22T07:57:34;3.90;99.90
11122;DHT22;5615;49.304;10.576;2023-12-22T08:00:01;3.90;99.90
11122;DHT22;5615;49.304;10.576;2023-12-22T08:02:28;3.90;99.90
11122;DHT22;5615;49.304;10.576;2023-12-22T08:04:57;3.90;99.90
11122;DHT22;5615;49.304;10.576;2023-12-22T08:07:23;4.00;99.90
11122;DHT22;5615;49.304;10.576;2023-12-22T08:09:50;4.10;99.90
11122;DHT22;5615;49.304;10.576;2023-12-22T08:12:17;4.20;99.90
11122;DHT22;5615;49.304;10.576;2023-12-22T08:14:43;4.40;99.90
11122;DHT22;5615;49.304;10.576;2023-12-22T08:17:10;4.30;99.90
11122;DHT22;5615;49.304;10.576;2023-12-22T08:19:38;4.40;99.90
11122;DHT22;5615;49.304;10.576;2023-12-22T08:22:09;4.40;99.90
11122;DHT22;5615;49.304;10.576;2023-12-22T08:24:36;4.50;99.90
11122;DHT22;5615;49.304;10.576;2023-12-22T08:27:03;4.50;99.90
11122;DHT22;5615;49.304;10.576;2023-12-22T08:29:31;4.50;99.90
11122;DHT22;5615;49.304;10.576;2023-12-22T08:31:58;4.50;99.90
11122;DHT22;5615;49.304;10.576;2023-12-22T08:34:25;4.50;99.90
11122;DHT22;5615;49.304;10.576;2023-12-22T08:36:52;4.60;99.90
11122;DHT22;5615;49.304;10.576;2023-12-22T08:39:20;4.70;99.90
11122;DHT22;5615;49.304;10.576;2023-12-22T08:41:47;4.80;99.90
11122;DHT22;5615;49.304;10.576;2023-12-22T08:44:14;4.90;99.90
11122;DHT22;5615;49.304;10.576;2023-12-22T08:46:40;5.00;99.90
11122;DHT22;5615;49.304;10.576;2023-12-22T08:49:07;5.20;99.90
11122;DHT22;5615;49.304;10.576;2023-12-22T08:51:34;5.30;99.90
11122;DHT22;5615;49.304;10.576;2023-12-22T08:54:01;5.30;99.90
11122;DHT22;5615;49.304;10.576;2023-12-22T08:56:30;5.20;99.90
11122;DHT22;5615;49.304;10.576;2023-12-22T08:58:57;5.10;99.90
11122;DHT22;5615;49.304;10.576;2023-12-22T09:01:25;4.90;99.90
11122;DHT22;5615;49.304;10.576;2023-12-22T09:03:52;4.70;99.90
11122;DHT22;5615;49.304;10.576;2023-12-22T09:06:20;4.70;99.90
11122;DHT22;5615;49.304;10.576;2023-12-22T09:08:47;4.70;99.90
11122;DHT22;5615;49.304;10.576;2023-12-22T09:11:17;4.70;99.90
11122;DHT22;5615;49.304;10.576;2023-12-22T09:13:45;4.90;99.90
11122;DHT22;5615;49.304;10.576;2023-12-22T09:16:12;5.00;99.90
11122;DHT22;5615;49.304;10.576;2023-12-22T09:18:40;5.00;99.90
11122;DHT22;5615;49.304;10.576;2023-12-22T09:21:07;5.00;99.90
11122;DHT22;5615;49.304;10.576;2023-12-22T09:23:34;5.10;99.90
11122;DHT22;5615;49.304;10.576;2023-12-22T09:26:00;5.20;99.90
11122;DHT22;5615;49.304;10.576;2023-12-22T09:28:30;5.10;99.90
11122;DHT22;5615;49.304;10.576;2023-12-22T09:30:58;5.00;99.90
11122;DHT22;5615;49.304;10.576;2023-12-22T09:33:24;5.00;99.90
11122;DHT22;5615;49.304;10.576;2023-12-22T09:35:51;5.00;99.90
11122;DHT22;5615;49.304;10.576;2023-12-22T09:38:18;5.20;99.90
11122;DHT22;5615;49.304;10.576;2023-12-22T09:40:45;5.40;99.90
11122;DHT22;5615;49.304;10.576;2023-12-22T09:43:14;5.40;99.90
11122;DHT22;5615;49.304;10.576;2023-12-22T09:45:41;5.60;99.90
11122;DHT22;5615;49.304;10.576;2023-12-22T09:48:11;5.60;99.90
11122;DHT22;5615;49.304;10.576;2023-12-22T09:50:42;5.80;99.90
11122;DHT22;5615;49.304;10.576;2023-12-22T09:53:09;5.80;99.90
11122;DHT22;5615;49.304;10.576;2023-12-22T09:55:37;5.70;99.90
11122;DHT22;5615;49.304;10.576;2023-12-22T09:58:06;5.80;99.90
11122;DHT22;5615;49.304;10.576;2023-12-22T10:00:36;5.80;99.90
11122;DHT22;5615;49.304;10.576;2023-12-22T10:03:04;5.90;99.90
11122;DHT22;5615;49.304;10.576;2023-12-22T10:05:33;5.90;99.90
11122;DHT22;5615;49.304;10.576;2023-12-22T10:08:01;5.70;99.90
11122;DHT22;5615;49.304;10.576;2023-12-22T10:10:28;5.80;99.90
11122;DHT22;5615;49.304;10.576;2023-12-22T10:12:56;5.80;99.90
11122;DHT22;5615;49.304;10.576;2023-12-22T10:15:23;5.70;99.90
11122;DHT22;5615;49.304;10.576;2023-12-22T10:17:50;5.50;99.90
11122;DHT22;5615;49.304;10.576;2023-12-22T10:20:17;5.50;99.90
11122;DHT22;5615;49.304;10.576;2023-12-22T10:22:45;5.40;99.90
11122;DHT22;5615;49.304;10.576;2023-12-22T10:25:14;5.30;99.90
11122;DHT22;5615;49.304;10.576;2023-12-22T10:27:42;5.20;99.90
11122;DHT22;5615;49.304;10.576;2023-12-22T10:30:10;5.00;99.90
11122;DHT22;5615;49.304;10.576;2023-12-22T10:32:40;4.80;99.90
11122;DHT22;5615;49.304;10.576;2023-12-22T10:35:07;4.60;99.90
11122;DHT22;5615;49.304;10.576;2023-12-22T10:37:34;4.50;99.90
11122;DHT22;5615;49.304;10.576;2023-12-22T10:40:05;4.40;99.90
11122;DHT22;5615;49.304;10.576;2023-12-22T10:42:32;4.40;99.90
11122;DHT22;5615;49.304;10.576;2023-12-22T10:44:59;4.40;99.90
11122;DHT22;5615;49.304;10.576;2023-12-22T10:47:25;4.30;99.90
11122;DHT22;5615;49.304;10.576;2023-12-22T10:49:52;4.30;99.90
11122;DHT22;5615;49.304;10.576;2023-12-22T10:52:19;4.40;99.90
11122;DHT22;5615;49.304;10.576;2023-12-22T10:54:48;4.40;99.90
11122;DHT22;5615;49.304;10.576;2023-12-22T10:57:18;4.50;99.90
11122;DHT22;5615;49.304;10.576;2023-12-22T10:59:46;4.60;99.90
11122;DHT22;5615;49.304;10.576;2023-12-22T11:02:15;4.60;99.90
11122;DHT22;5615;49.304;10.576;2023-12-22T11:04:56;4.80;99.90
11122;DHT22;5615;49.304;10.576;2023-12-22T11:07:24;4.80;99.90
11122;DHT22;5615;49.304;10.576;2023-12-22T11:09:51;4.90;99.90
11122;DHT22;5615;49.304;10.576;2023-12-22T11:12:21;5.00;99.90
11122;DHT22;5615;49.304;10.576;2023-12-22T11:14:50;5.10;99.90
11122;DHT22;5615;49.304;10.576;2023-12-22T11:17:19;5.30;99.90
11122;DHT22;5615;49.304;10.576;2023-12-22T11:19:47;5.40;99.90
11122;DHT22;5615;49.304;10.576;2023-12-22T11:22:16;5.40;99.90
11122;DHT22;5615;49.304;10.576;2023-12-22T11:24:46;5.40;99.90
11122;DHT22;5615;49.304;10.576;2023-12-22T11:27:13;5.40;99.90
11122;DHT22;5615;49.304;10.576;2023-12-22T11:29:41;5.40;99.90
11122;DHT22;5615;49.304;10.576;2023-12-22T11:32:09;5.40;99.90
11122;DHT22;5615;49.304;10.576;2023-12-22T11:34:38;5.40;99.90
11122;DHT22;5615;49.304;10.576;2023-12-22T11:37:07;5.40;99.90
11122;DHT22;5615;49.304;10.576;2023-12-22T11:39:34;5.40;99.90
11122;DHT22;5615;49.304;10.576;2023-12-22T11:42:01;5.50;99.90
11122;DHT22;5615;49.304;10.576;2023-12-22T11:44:29;5.60;99.90
11122;DHT22;5615;49.304;10.576;2023-12-22T11:47:08;5.60;99.90
11122;DHT22;5615;49.304;10.576;2023-12-22T11:49:37;5.60;99.90
11122;DHT22;5615;49.304;10.576;2023-12-22T11:52:10;5.60;99.90
11122;DHT22;5615;49.304;10.576;2023-12-22T11:54:44;5.70;99.90
11122;DHT22;5615;49.304;10.576;2023-12-22T11:57:29;5.70;99.90
11122;DHT22;5615;49.304;10.576;2023-12-22T11:59:55;5.80;99.90
11122;DHT22;5615;49.304;10.576;2023-12-22T12:02:24;5.90;99.90
11122;DHT22;5615;49.304;10.576;2023-12-22T12:04:51;5.90;99.90
11122;DHT22;5615;49.304;10.576;2023-12-22T12:07:40;5.90;99.90
11122;DHT22;5615;49.304;10.576;2023-12-22T12:10:09;5.80;99.90
11122;DHT22;5615;49.304;10.576;2023-12-22T12:12:36;5.90;99.90
11122;DHT22;5615;49.304;10.576;2023-12-22T12:15:17;5.90;99.90
11122;DHT22;5615;49.304;10.576;2023-12-22T12:17:45;6.00;99.90
11122;DHT22;5615;49.304;10.576;2023-12-22T12:20:12;6.00;99.90
11122;DHT22;5615;49.304;10.576;2023-12-22T12:22:38;6.00;99.90
11122;DHT22;5615;49.304;10.576;2023-12-22T12:25:09;6.00;99.90
11122;DHT22;5615;49.304;10.576;2023-12-22T12:27:37;6.00;99.90
11122;DHT22;5615;49.304;10.576;2023-12-22T12:30:08;6.00;99.90
11122;DHT22;5615;49.304;10.576;2023-12-22T12:32:37;6.10;99.90
11122;DHT22;5615;49.304;10.576;2023-12-22T12:35:06;6.10;99.90
11122;DHT22;5615;49.304;10.576;2023-12-22T12:37:33;6.10;99.90
11122;DHT22;5615;49.304;10.576;2023-12-22T12:40:02;6.10;99.90
11122;DHT22;5615;49.304;10.576;2023-12-22T12:42:31;6.10;99.90
11122;DHT22;5615;49.304;10.576;2023-12-22T12:44:58;6.10;99.90
11122;DHT22;5615;49.304;10.576;2023-12-22T12:47:24;6.10;99.90
11122;DHT22;5615;49.304;10.576;2023-12-22T12:49:57;6.10;99.90
11122;DHT22;5615;49.304;10.576;2023-12-22T12:52:25;6.10;99.90
11122;DHT22;5615;49.304;10.576;2023-12-22T12:54:52;6.10;99.90
11122;DHT22;5615;49.304;10.576;2023-12-22T12:57:19;6.00;99.90
11122;DHT22;5615;49.304;10.576;2023-12-22T12:59:46;6.00;99.90
11122;DHT22;5615;49.304;10.576;2023-12-22T13:02:14;6.00;99.90
11122;DHT22;5615;49.304;10.576;2023-12-22T13:04:41;6.10;99.90
11122;DHT22;5615;49.304;10.576;2023-12-22T13:07:08;6.20;99.90
11122;DHT22;5615;49.304;10.576;2023-12-22T13:09:39;6.20;99.90
11122;DHT22;5615;49.304;10.576;2023-12-22T13:12:07;6.20;99.90
11122;DHT22;5615;49.304;10.576;2023-12-22T13:14:34;6.20;99.90
11122;DHT22;5615;49.304;10.576;2023-12-22T13:17:01;6.10;99.90
11122;DHT22;5615;49.304;10.576;2023-12-22T13:19:28;6.00;99.90
11122;DHT22;5615;49.304;10.576;2023-12-22T13:21:55;6.00;99.90
11122;DHT22;5615;49.304;10.576;2023-12-22T13:24:22;6.10;99.90
11122;DHT22;5615;49.304;10.576;2023-12-22T13:27:00;6.00;99.90
11122;DHT22;5615;49.304;10.576;2023-12-22T13:29:28;5.80;99.90
11122;DHT22;5615;49.304;10.576;2023-12-22T13:31:55;5.70;99.90
11122;DHT22;5615;49.304;10.576;2023-12-22T13:34:23;5.70;99.90
11122;DHT22;5615;49.304;10.576;2023-12-22T13:36:50;5.80;99.90
11122;DHT22;5615;49.304;10.576;2023-12-22T13:39:17;5.80;99.90
11122;DHT22;5615;49.304;10.576;2023-12-22T13:41:44;5.80;99.90
11122;DHT22;5615;49.304;10.576;2023-12-22T13:44:13;5.80;99.90
11122;DHT22;5615;49.304;10.576;2023-12-22T13:46:40;5.80;99.90
11122;DHT22;5615;49.304;10.576;2023-12-22T13:49:08;5.90;99.90
11122;DHT22;5615;49.304;10.576;2023-12-22T13:51:39;5.90;99.90
11122;DHT22;5615;49.304;10.576;2023-12-22T13:54:06;5.90;99.90
11122;DHT22;5615;49.304;10.576;2023-12-22T13:56:33;5.90;99.90
11122;DHT22;5615;49.304;10.576;2023-12-22T13:59:02;5.80;99.90
11122;DHT22;5615;49.304;10.576;2023-12-22T14:01:30;5.90;99.90
11122;DHT22;5615;49.304;10.576;2023-12-22T14:03:57;5.90;99.90
11122;DHT22;5615;49.304;10.576;2023-12-22T14:06:25;5.90;99.90
11122;DHT22;5615;49.304;10.576;2023-12-22T14:08:52;6.00;99.90
11122;DHT22;5615;49.304;10.576;2023-12-22T14:11:19;6.00;99.90
11122;DHT22;5615;49.304;10.576;2023-12-22T14:13:45;6.10;99.90
11122;DHT22;5615;49.304;10.576;2023-12-22T14:16:12;6.10;99.90
11122;DHT22;5615;49.304;10.576;2023-12-22T14:18:40;6.20;99.90
11122;DHT22;5615;49.304;10.576;2023-12-22T14:21:07;6.20;99.90
11122;DHT22;5615;49.304;10.576;2023-12-22T14:23:33;6.20;99.90
11122;DHT22;5615;49.304;10.576;2023-12-22T14:26:00;6.20;99.90
11122;DHT22;5615;49.304;10.576;2023-12-22T14:28:26;6.20;99.90
11122;DHT22;5615;49.304;10.576;2023-12-22T14:30:54;6.20;99.90
11122;DHT22;5615;49.304;10.576;2023-12-22T14:33:20;6.20;99.90
11122;DHT22;5615;49.304;10.576;2023-12-22T14:35:50;6.20;99.90
11122;DHT22;5615;49.304;10.576;2023-12-22T14:38:17;6.30;99.90
11122;DHT22;5615;49.304;10.576;2023-12-22T14:40:44;6.40;99.90
11122;DHT22;5615;49.304;10.576;2023-12-22T14:43:10;6.40;99.90
11122;DHT22;5615;49.304;10.576;2023-12-22T14:45:37;6.40;99.90
11122;DHT22;5615;49.304;10.576;2023-12-22T14:48:05;6.40;99.90
11122;DHT22;5615;49.304;10.576;2023-12-22T14:50:31;6.50;99.90
11122;DHT22;5615;49.304;10.576;2023-12-22T14:52:59;6.50;99.90
11122;DHT22;5615;49.304;10.576;2023-12-22T14:55:26;6.50;99.90
11122;DHT22;5615;49.304;10.576;2023-12-22T14:57:53;6.60;99.90
11122;DHT22;5615;49.304;10.576;2023-12-22T15:00:20;6.60;99.90
11122;DHT22;5615;49.304;10.576;2023-12-22T15:02:46;6.50;99.90
11122;DHT22;5615;49.304;10.576;2023-12-22T15:05:13;6.40;99.90
11122;DHT22;5615;49.304;10.576;2023-12-22T15:07:39;6.40;99.90
11122;DHT22;5615;49.304;10.576;2023-12-22T15:10:08;6.30;99.90
11122;DHT22;5615;49.304;10.576;2023-12-22T15:12:35;6.40;99.90
11122;DHT22;5615;49.304;10.576;2023-12-22T15:15:03;6.40;99.90
11122;DHT22;5615;49.304;10.576;2023-12-22T15:17:30;6.40;99.90
11122;DHT22;5615;49.304;10.576;2023-12-22T15:19:57;6.40;99.90
11122;DHT22;5615;49.304;10.576;2023-12-22T15:22:23;6.50;99.90
11122;DHT22;5615;49.304;10.576;2023-12-22T15:24:50;6.50;99.90
11122;DHT22;5615;49.304;10.576;2023-12-22T15:27:18;6.60;99.90
11122;DHT22;5615;49.304;10.576;2023-12-22T15:29:45;6.60;99.90
11122;DHT22;5615;49.304;10.576;2023-12-22T15:32:12;6.60;99.90
11122;DHT22;5615;49.304;10.576;2023-12-22T15:34:41;6.60;99.90
11122;DHT22;5615;49.304;10.576;2023-12-22T15:37:07;6.60;99.90
11122;DHT22;5615;49.304;10.576;2023-12-22T15:39:34;6.70;99.90
11122;DHT22;5615;49.304;10.576;2023-12-22T15:42:01;6.60;99.90
11122;DHT22;5615;49.304;10.576;2023-12-22T15:44:29;6.60;99.90
11122;DHT22;5615;49.304;10.576;2023-12-22T15:46:55;6.70;99.90